Time;durP1;ratioP1;P1;durP2;ratioP2;P2;SDS_P1;SDS_P2;PMS_P1;PMS_P2;Temp;Humidity;BMP_temperature;BMP_pressure;BME280_temperature;BME280_humidity;BME280_pressure;Samples;Min_cycle;Max_cycle;Signal;HPM_P1;HPM_P2
2022/06/13 00:01:14;;;;;;;5.85;1.98;;;16.50;99.90;;;;;;4163921;28;20787;-92
2022/06/13 00:03:16;;;;;;;9.43;1.75;;;16.50;99.90;;;;;;4164433;28;20633;-93
2022/06/13 00:05:17;;;;;;;10.80;2.38;;;16.50;99.90;;;;;;4164113;28;22550;-94
2022/06/13 00:07:18;;;;;;;11.07;2.03;;;16.40;99.90;;;;;;4164292;28;20184;-93
2022/06/13 00:09:19;;;;;;;11.63;2.60;;;16.30;99.90;;;;;;4180523;28;20666;-92
2022/06/13 00:11:23;;;;;;;14.95;2.50;;;16.20;99.90;;;;;;4164387;28;20180;-92
2022/06/13 00:13:23;;;;;;;8.18;2.45;;;16.20;99.90;;;;;;4163574;28;20183;-92
2022/06/13 00:15:24;;;;;;;11.57;2.70;;;16.20;99.90;;;;;;4164143;28;20617;-92
2022/06/13 00:17:25;;;;;;;14.43;2.72;;;16.10;99.90;;;;;;4164417;28;20178;-91
2022/06/13 00:19:26;;;;;;;9.23;2.70;;;16.10;99.90;;;;;;4180386;28;20192;-92
2022/06/13 00:21:32;;;;;;;8.52;2.60;;;16.10;99.90;;;;;;4180763;28;20260;-93
2022/06/13 00:23:36;;;;;;;9.52;2.30;;;16.00;99.90;;;;;;4164133;28;20164;-92
2022/06/13 00:25:36;;;;;;;8.98;2.50;;;16.00;99.90;;;;;;4180416;28;20230;-92
2022/06/13 00:27:37;;;;;;;10.85;2.03;;;16.00;99.90;;;;;;4163955;28;20259;-93
2022/06/13 00:29:39;;;;;;;11.00;2.55;;;15.90;99.90;;;;;;4163857;28;20617;-92
2022/06/13 00:31:39;;;;;;;12.68;2.70;;;15.80;99.90;;;;;;4164176;28;20180;-92
2022/06/13 00:33:40;;;;;;;9.80;2.22;;;15.80;99.90;;;;;;4180353;28;20183;-92
2022/06/13 00:35:42;;;;;;;9.60;2.42;;;15.80;99.90;;;;;;4164255;28;20167;-92
2022/06/13 00:37:42;;;;;;;13.05;2.55;;;15.80;99.90;;;;;;4164036;28;20183;-92
2022/06/13 00:39:43;;;;;;;11.25;2.50;;;15.80;99.90;;;;;;4180359;28;20896;-93
2022/06/13 00:41:44;;;;;;;15.30;3.28;;;15.80;99.90;;;;;;4164076;28;20191;-92
2022/06/13 00:43:47;;;;;;;10.50;2.65;;;15.80;99.90;;;;;;4163609;28;20186;-92
2022/06/13 00:45:47;;;;;;;13.10;3.08;;;15.70;99.90;;;;;;4180280;28;20207;-92
2022/06/13 00:47:52;;;;;;;9.52;2.92;;;15.70;99.90;;;;;;4163702;28;20180;-93
2022/06/13 00:49:53;;;;;;;11.43;2.97;;;15.70;99.90;;;;;;4163478;28;20199;-93
2022/06/13 00:51:57;;;;;;;11.20;2.70;;;15.70;99.90;;;;;;4179959;28;20233;-92
2022/06/13 00:53:58;;;;;;;11.13;2.75;;;15.70;99.90;;;;;;4163313;28;20180;-92
2022/06/13 00:56:04;;;;;;;9.05;2.80;;;15.70;99.90;;;;;;4163768;28;20175;-93
2022/06/13 00:58:06;;;;;;;9.30;2.58;;;15.70;99.90;;;;;;4163674;28;20273;-93
2022/06/13 01:00:12;;;;;;;14.73;3.08;;;15.70;99.90;;;;;;4163527;28;20175;-93
2022/06/13 01:02:13;;;;;;;7.40;2.20;;;15.70;99.90;;;;;;4163661;28;20299;-93
2022/06/13 01:04:14;;;;;;;15.23;3.03;;;15.80;99.90;;;;;;4180123;28;20168;-92
2022/06/13 01:06:15;;;;;;;11.40;2.72;;;15.80;99.90;;;;;;4163384;28;20676;-94
2022/06/13 01:08:18;;;;;;;11.48;2.33;;;15.90;99.90;;;;;;4180061;28;20191;-91
2022/06/13 01:12:39;;;;;;;11.80;2.67;;;15.90;99.90;;;;;;4196477;28;20269;-92
2022/06/13 01:14:57;;;;;;;14.32;2.88;;;15.90;99.90;;;;;;4163234;28;20706;-92
2022/06/13 01:17:20;;;;;;;9.68;2.53;;;15.90;99.90;;;;;;4163531;28;20218;-93
2022/06/13 01:19:32;;;;;;;9.90;2.88;;;15.80;99.90;;;;;;4163074;28;20200;-92
2022/06/13 01:21:47;;;;;;;10.68;2.67;;;15.80;99.90;;;;;;4163377;28;20172;-92
2022/06/13 01:24:20;;;;;;;11.57;2.63;;;15.80;99.90;;;;;;4180050;28;20187;-93
2022/06/13 01:26:26;;;;;;;10.95;2.70;;;15.80;99.90;;;;;;4166404;28;20267;-92
2022/06/13 01:28:55;;;;;;;12.70;2.78;;;15.70;99.90;;;;;;4166202;28;20291;-94
2022/06/13 01:31:11;;;;;;;8.60;2.58;;;15.70;99.90;;;;;;4166222;28;20540;-92
2022/06/13 01:33:35;;;;;;;13.60;3.13;;;15.60;99.90;;;;;;4166638;28;20671;-93
2022/06/13 01:35:53;;;;;;;14.15;2.88;;;15.60;99.90;;;;;;4182816;28;20167;-93
2022/06/13 01:38:18;;;;;;;13.75;3.15;;;15.60;99.90;;;;;;4166671;28;20211;-92
2022/06/13 01:40:42;;;;;;;10.32;2.65;;;15.60;99.90;;;;;;4165956;28;20176;-94
2022/06/13 01:43:27;;;;;;;17.00;3.03;;;15.50;99.90;;;;;;4166197;28;20221;-92
2022/06/13 01:45:48;;;;;;;11.38;2.65;;;15.60;99.90;;;;;;4135779;28;20220;-92
2022/06/13 01:48:06;;;;;;;13.48;2.65;;;15.50;99.90;;;;;;4165912;28;20179;-92
2022/06/13 01:50:36;;;;;;;13.45;2.67;;;15.50;99.90;;;;;;4182699;28;20167;-93
2022/06/13 01:52:58;;;;;;;14.27;2.85;;;15.60;99.90;;;;;;4182480;28;20241;-95
2022/06/13 01:55:24;;;;;;;14.02;2.95;;;15.70;99.90;;;;;;4165673;28;20182;-93
2022/06/13 01:57:42;;;;;;;11.82;2.90;;;15.80;99.90;;;;;;4182575;28;20199;-92
2022/06/13 01:59:59;;;;;;;10.80;2.65;;;15.80;99.90;;;;;;4165726;28;20180;-93
2022/06/13 02:02:10;;;;;;;11.63;2.95;;;15.90;99.90;;;;;;4165896;28;20191;-93
2022/06/13 02:04:29;;;;;;;9.57;2.88;;;15.80;99.90;;;;;;4165864;28;20683;-93
2022/06/13 02:06:33;;;;;;;13.75;3.17;;;15.80;99.90;;;;;;4165771;28;20218;-92
2022/06/13 02:09:32;;;;;;;10.98;2.72;;;15.90;99.90;;;;;;4165811;28;20520;-92
2022/06/13 02:11:34;;;;;;;15.43;3.00;;;15.90;99.90;;;;;;4127169;28;20297;-91
2022/06/13 02:13:40;;;;;;;18.95;3.25;;;15.80;99.90;;;;;;4165846;28;20227;-92
2022/06/13 02:15:47;;;;;;;12.48;3.13;;;15.80;99.90;;;;;;4165435;28;20268;-93
2022/06/13 02:17:56;;;;;;;10.88;2.60;;;15.70;99.90;;;;;;4165663;28;20183;-91
2022/06/13 02:20:06;;;;;;;13.07;2.55;;;15.70;99.90;;;;;;4165920;28;20187;-92
2022/06/13 02:22:19;;;;;;;16.80;2.90;;;15.60;99.90;;;;;;4165918;28;20259;-94
2022/06/13 02:24:26;;;;;;;12.23;2.92;;;15.50;99.90;;;;;;4182404;28;20258;-92
2022/06/13 02:26:31;;;;;;;11.82;3.17;;;15.50;99.90;;;;;;4165680;28;20306;-93
2022/06/13 02:28:49;;;;;;;15.55;3.88;;;15.40;99.90;;;;;;4182131;28;20215;-92
2022/06/13 02:30:55;;;;;;;15.10;3.60;;;15.40;99.90;;;;;;4181874;28;20179;-92
2022/06/13 02:33:07;;;;;;;19.27;3.78;;;15.40;99.90;;;;;;4165298;28;20534;-93
2022/06/13 02:35:16;;;;;;;11.20;3.05;;;15.40;99.90;;;;;;4181746;28;20287;-92
2022/06/13 02:37:33;;;;;;;16.10;3.00;;;15.40;99.90;;;;;;4165504;28;20316;-92
2022/06/13 02:39:53;;;;;;;10.25;3.33;;;15.30;99.90;;;;;;4181699;28;20285;-92
2022/06/13 02:42:01;;;;;;;14.73;3.17;;;15.40;99.90;;;;;;4165175;28;20684;-92
2022/06/13 02:44:10;;;;;;;16.30;3.13;;;15.50;99.90;;;;;;4181649;28;20630;-92
2022/06/13 02:46:29;;;;;;;15.75;3.40;;;15.50;99.90;;;;;;4165329;28;20223;-92
2022/06/13 02:48:42;;;;;;;12.60;3.53;;;15.40;99.90;;;;;;4181743;28;20198;-92
2022/06/13 02:51:17;;;;;;;17.60;3.50;;;15.50;99.90;;;;;;4165081;28;20187;-91
2022/06/13 02:53:26;;;;;;;14.15;3.35;;;15.60;99.90;;;;;;4181319;28;20573;-92
2022/06/13 02:55:29;;;;;;;16.98;3.63;;;15.40;99.90;;;;;;4165165;28;20237;-91
2022/06/13 02:58:06;;;;;;;19.90;3.75;;;15.50;99.90;;;;;;4164896;28;20270;-93
2022/06/13 03:00:25;;;;;;;19.52;3.92;;;15.60;99.90;;;;;;4181145;28;20175;-93
2022/06/13 03:03:06;;;;;;;17.10;4.50;;;15.50;99.90;;;;;;4164726;28;20655;-93
2022/06/13 03:05:40;;;;;;;13.60;3.40;;;15.60;99.90;;;;;;4163858;28;20216;-92
2022/06/13 03:07:52;;;;;;;15.25;3.53;;;15.50;99.90;;;;;;4164750;28;20655;-94
2022/06/13 03:09:58;;;;;;;18.27;3.55;;;15.50;99.90;;;;;;4181305;28;20685;-93
2022/06/13 03:12:12;;;;;;;17.63;3.55;;;15.50;99.90;;;;;;4165078;28;20224;-93
2022/06/13 03:14:33;;;;;;;19.50;3.83;;;15.60;99.90;;;;;;4165157;28;20180;-93
2022/06/13 03:16:40;;;;;;;16.58;3.30;;;15.60;99.90;;;;;;4164928;28;20652;-93
2022/06/13 03:18:48;;;;;;;15.32;3.72;;;15.60;99.90;;;;;;4165032;28;20208;-92
2022/06/13 03:21:06;;;;;;;21.85;4.07;;;15.60;99.90;;;;;;4164776;28;20214;-92
2022/06/13 03:23:29;;;;;;;15.38;3.13;;;15.60;99.90;;;;;;4181400;28;20193;-91
2022/06/13 03:25:54;;;;;;;13.32;3.50;;;15.60;99.90;;;;;;4164415;28;20204;-92
2022/06/13 03:28:01;;;;;;;17.10;3.95;;;15.60;99.90;;;;;;4180871;28;20196;-91
2022/06/13 03:30:04;;;;;;;21.40;3.95;;;15.50;99.90;;;;;;4164675;28;20176;-92
2022/06/13 03:32:14;;;;;;;12.45;3.17;;;15.40;99.90;;;;;;4164861;28;20206;-93
2022/06/13 03:34:20;;;;;;;15.00;2.92;;;15.40;99.90;;;;;;4164371;28;20226;-92
2022/06/13 03:37:01;;;;;;;12.63;3.42;;;15.40;99.90;;;;;;4164652;28;20264;-94
2022/06/13 03:39:18;;;;;;;15.52;3.35;;;15.30;99.90;;;;;;4158428;28;20216;-94
2022/06/13 03:41:26;;;;;;;19.73;3.60;;;15.30;99.90;;;;;;4164251;28;20175;-93
2022/06/13 03:43:34;;;;;;;19.80;4.53;;;15.30;99.90;;;;;;4164181;28;20670;-92
2022/06/13 03:45:53;;;;;;;12.63;3.80;;;15.30;99.90;;;;;;4163875;28;20222;-93
2022/06/13 03:48:02;;;;;;;13.93;3.35;;;15.30;99.90;;;;;;4163621;28;20207;-91
2022/06/13 03:50:25;;;;;;;14.00;3.92;;;15.20;99.90;;;;;;4180764;28;20179;-93
2022/06/13 03:52:28;;;;;;;16.85;3.90;;;15.30;99.90;;;;;;4164874;28;20176;-92
2022/06/13 03:54:37;;;;;;;11.50;3.53;;;15.30;99.90;;;;;;4180747;28;20171;-93
2022/06/13 03:56:46;;;;;;;15.13;3.78;;;15.20;99.90;;;;;;4164156;28;20172;-93
2022/06/13 03:59:08;;;;;;;15.45;3.50;;;15.30;99.90;;;;;;4163994;28;20191;-93
2022/06/13 04:01:24;;;;;;;17.77;3.55;;;15.30;99.90;;;;;;4164066;28;20584;-92
2022/06/13 04:03:26;;;;;;;18.80;3.50;;;15.30;99.90;;;;;;4164259;28;20255;-94
2022/06/13 04:05:56;;;;;;;13.60;3.50;;;15.40;99.90;;;;;;4163946;28;20200;-94
2022/06/13 04:07:58;;;;;;;14.20;3.85;;;15.40;99.90;;;;;;4164581;28;20184;-94
2022/06/13 04:10:08;;;;;;;14.27;3.72;;;15.40;99.90;;;;;;4164189;28;20282;-91
2022/06/13 04:12:40;;;;;;;15.55;3.40;;;15.40;99.90;;;;;;4164347;28;20223;-94
2022/06/13 04:14:49;;;;;;;15.05;3.38;;;15.40;99.90;;;;;;4158543;28;20180;-92
2022/06/13 04:17:12;;;;;;;17.63;3.90;;;15.50;99.90;;;;;;4164032;28;20621;-93
2022/06/13 04:19:41;;;;;;;11.48;3.10;;;15.60;99.90;;;;;;4163819;28;20310;-93
2022/06/13 04:21:51;;;;;;;15.20;3.55;;;15.70;99.90;;;;;;4149695;28;20553;-93
2022/06/13 04:24:08;;;;;;;16.55;3.67;;;15.70;99.90;;;;;;4163553;28;20160;-93
2022/06/13 04:26:14;;;;;;;18.67;3.58;;;15.70;99.90;;;;;;4163729;28;20208;-93
2022/06/13 04:28:28;;;;;;;13.80;3.67;;;15.80;99.90;;;;;;4163453;28;20196;-94
2022/06/13 04:30:31;;;;;;;18.67;3.72;;;15.80;99.90;;;;;;4164054;28;20526;-93
2022/06/13 04:32:39;;;;;;;15.52;3.50;;;15.90;99.90;;;;;;4163871;28;20176;-92
2022/06/13 04:34:47;;;;;;;12.13;3.30;;;15.90;99.90;;;;;;4180202;28;20194;-93
2022/06/13 04:36:49;;;;;;;15.25;3.40;;;15.90;99.90;;;;;;4163747;28;20270;-93
2022/06/13 04:38:53;;;;;;;12.57;3.13;;;15.90;99.90;;;;;;4163876;28;20203;-92
2022/06/13 04:40:59;;;;;;;21.88;4.45;;;16.00;99.90;;;;;;4163686;28;20188;-91
2022/06/13 04:43:01;;;;;;;12.48;3.70;;;16.00;99.90;;;;;;4163698;28;20212;-92
2022/06/13 04:45:14;;;;;;;12.82;3.75;;;16.00;99.90;;;;;;4180220;28;20219;-92
2022/06/13 04:47:16;;;;;;;15.45;3.65;;;15.90;99.90;;;;;;4163702;28;20662;-93
2022/06/13 04:49:33;;;;;;;13.35;3.50;;;15.90;99.90;;;;;;4163703;28;20196;-92
2022/06/13 04:51:40;;;;;;;15.65;3.67;;;16.00;99.90;;;;;;4163891;28;20176;-92
2022/06/13 04:53:56;;;;;;;15.18;3.97;;;16.10;99.90;;;;;;4163972;28;20176;-93
2022/06/13 04:55:59;;;;;;;15.02;3.67;;;16.20;99.90;;;;;;4163499;28;20180;-91
2022/06/13 04:58:00;;;;;;;13.68;3.55;;;16.30;99.90;;;;;;4180441;28;20190;-92
2022/06/13 05:00:07;;;;;;;17.05;3.63;;;16.40;99.90;;;;;;4167373;28;20267;-92
2022/06/13 05:02:31;;;;;;;10.40;3.00;;;16.50;99.90;;;;;;4167260;28;20556;-92
2022/06/13 05:04:32;;;;;;;13.07;3.70;;;16.70;99.90;;;;;;4167260;28;20184;-92
2022/06/13 05:06:37;;;;;;;13.95;3.92;;;16.70;99.90;;;;;;4167089;28;20212;-91
2022/06/13 05:08:40;;;;;;;13.60;3.83;;;16.90;99.90;;;;;;4166669;28;20196;-92
2022/06/13 05:10:43;;;;;;;21.35;3.60;;;16.80;99.90;;;;;;4166830;28;20568;-91
2022/06/13 05:12:45;;;;;;;16.17;3.63;;;16.80;99.90;;;;;;4166955;28;20172;-92
2022/06/13 05:14:50;;;;;;;16.00;3.63;;;16.60;99.90;;;;;;4166874;28;20588;-93
2022/06/13 05:17:09;;;;;;;12.15;3.08;;;16.60;99.90;;;;;;4166864;28;20191;-91
2022/06/13 05:19:25;;;;;;;14.75;3.55;;;16.80;99.90;;;;;;4183426;28;20214;-93
2022/06/13 05:21:33;;;;;;;12.15;3.67;;;16.80;99.90;;;;;;4167023;28;20214;-92
2022/06/13 05:23:51;;;;;;;14.02;3.42;;;16.70;99.90;;;;;;4166934;28;20225;-91
2022/06/13 05:25:56;;;;;;;15.18;3.85;;;16.80;99.90;;;;;;4166921;28;20687;-92
2022/06/13 05:27:56;;;;;;;16.92;3.78;;;16.80;99.90;;;;;;4183218;28;20195;-91
2022/06/13 05:29:57;;;;;;;13.10;3.60;;;16.80;99.90;;;;;;4183147;28;20168;-92
2022/06/13 05:31:58;;;;;;;12.85;3.58;;;16.80;99.90;;;;;;4166988;28;20172;-92
2022/06/13 05:33:59;;;;;;;17.75;3.90;;;16.90;99.90;;;;;;4183170;28;20178;-91
2022/06/13 05:36:02;;;;;;;15.88;3.30;;;17.00;99.90;;;;;;4166653;28;20184;-91
2022/06/13 05:38:04;;;;;;;12.02;3.35;;;17.10;99.90;;;;;;4183353;28;20199;-91
2022/06/13 05:40:05;;;;;;;13.85;3.53;;;17.10;99.90;;;;;;4166500;28;20176;-93
2022/06/13 05:42:08;;;;;;;18.48;3.75;;;17.20;99.90;;;;;;4166611;28;20172;-92
2022/06/13 05:44:09;;;;;;;15.68;3.13;;;17.30;99.90;;;;;;4183166;28;20168;-92
2022/06/13 05:46:27;;;;;;;17.73;3.00;;;17.20;99.90;;;;;;4182582;28;20218;-91
2022/06/13 05:48:27;;;;;;;13.68;2.97;;;17.10;99.90;;;;;;4166132;28;20203;-91
2022/06/13 05:50:30;;;;;;;11.52;3.67;;;17.10;99.90;;;;;;4182907;28;20168;-92
2022/06/13 05:52:30;;;;;;;13.13;2.95;;;17.00;99.90;;;;;;4166318;28;20254;-91
2022/06/13 05:54:31;;;;;;;19.95;3.28;;;16.90;99.90;;;;;;4182756;28;20655;-92
2022/06/13 05:56:32;;;;;;;22.83;3.42;;;16.90;99.90;;;;;;4183128;28;20172;-91
2022/06/13 05:58:32;;;;;;;16.27;3.13;;;17.10;99.90;;;;;;4183031;28;20202;-92
2022/06/13 06:00:40;;;;;;;12.75;3.50;;;17.10;99.90;;;;;;4166449;28;20176;-92
2022/06/13 06:02:41;;;;;;;11.95;3.17;;;17.10;99.90;;;;;;4166643;28;20173;-91
2022/06/13 06:04:42;;;;;;;16.73;2.92;;;17.20;99.90;;;;;;4166564;28;20180;-92
2022/06/13 06:06:43;;;;;;;16.85;2.90;;;17.30;99.90;;;;;;4166229;28;20730;-90
2022/06/13 06:08:44;;;;;;;12.10;2.78;;;17.40;99.90;;;;;;4166065;28;20218;-91
2022/06/13 06:10:46;;;;;;;19.08;3.45;;;17.40;99.90;;;;;;4165438;28;20207;-91
2022/06/13 06:12:46;;;;;;;15.60;2.85;;;17.40;99.90;;;;;;4165714;28;20173;-93
2022/06/13 06:14:47;;;;;;;11.82;2.80;;;17.50;99.90;;;;;;4182682;28;20258;-93
2022/06/13 06:16:48;;;;;;;15.23;2.90;;;17.50;99.90;;;;;;4165968;28;20183;-93
2022/06/13 06:18:49;;;;;;;16.70;3.03;;;17.40;99.90;;;;;;4182558;28;20218;-91
2022/06/13 06:20:50;;;;;;;11.15;2.70;;;17.30;99.90;;;;;;4165806;28;20180;-90
2022/06/13 06:22:50;;;;;;;17.70;2.45;;;17.40;99.90;;;;;;4182597;28;20198;-90
2022/06/13 06:24:51;;;;;;;11.02;2.60;;;17.80;99.90;;;;;;4182589;28;20175;-91
2022/06/13 06:26:52;;;;;;;10.23;2.42;;;18.00;99.90;;;;;;4182300;28;20215;-91
2022/06/13 06:28:53;;;;;;;12.95;2.15;;;18.30;99.90;;;;;;4165564;28;20193;-92
2022/06/13 06:30:56;;;;;;;16.65;2.38;;;18.20;99.90;;;;;;4182154;28;20547;-92
2022/06/13 06:32:57;;;;;;;10.70;2.38;;;18.40;99.90;;;;;;4165805;28;20216;-91
2022/06/13 06:34:58;;;;;;;10.07;2.15;;;18.60;99.90;;;;;;4182188;28;20215;-91
2022/06/13 06:36:59;;;;;;;10.68;1.90;;;18.50;99.90;;;;;;4165941;28;20176;-91
2022/06/13 06:38:59;;;;;;;11.80;2.20;;;18.40;99.90;;;;;;4165551;28;20303;-90
2022/06/13 06:41:00;;;;;;;14.90;2.20;;;18.80;99.90;;;;;;4165619;28;20168;-92
2022/06/13 06:43:01;;;;;;;7.60;1.77;;;18.70;99.90;;;;;;4182471;28;20270;-93
2022/06/13 06:45:02;;;;;;;9.82;2.10;;;18.80;99.90;;;;;;4165560;28;20174;-92
2022/06/13 06:47:02;;;;;;;8.05;1.85;;;18.80;99.90;;;;;;4182104;28;20187;-90
2022/06/13 06:49:03;;;;;;;9.02;1.63;;;18.50;99.90;;;;;;4165570;28;20250;-91
2022/06/13 06:51:10;;;;;;;7.88;2.10;;;18.40;99.90;;;;;;4181956;28;20175;-93
2022/06/13 06:53:12;;;;;;;7.78;1.73;;;18.60;99.90;;;;;;4165620;28;20185;-91
2022/06/13 06:59:53;;;;;;;5.35;1.38;;;19.10;99.90;;;;;;4182097;28;20198;-92
2022/06/13 07:01:54;;;;;;;8.63;1.80;;;18.90;99.90;;;;;;4165489;28;20644;-90
2022/06/13 07:03:54;;;;;;;10.95;2.35;;;18.80;99.90;;;;;;4181376;28;20172;-89
2022/06/13 07:05:55;;;;;;;9.25;1.90;;;18.80;99.90;;;;;;4165383;28;20212;-89
2022/06/13 07:07:56;;;;;;;7.50;1.70;;;18.80;99.90;;;;;;4181479;28;20259;-90
2022/06/13 07:09:56;;;;;;;9.02;1.52;;;19.00;99.90;;;;;;4165175;28;20168;-90
2022/06/13 07:11:57;;;;;;;7.80;1.73;;;18.90;99.90;;;;;;4181751;28;20222;-91
2022/06/13 07:13:58;;;;;;;8.10;1.65;;;19.10;99.90;;;;;;4164853;28;20179;-90
2022/06/13 07:15:58;;;;;;;8.50;1.65;;;19.70;99.90;;;;;;4181814;28;20170;-91
2022/06/13 07:17:59;;;;;;;8.48;2.13;;;20.70;99.90;;;;;;4164721;28;20196;-92
2022/06/13 07:20:00;;;;;;;9.45;1.80;;;21.50;99.90;;;;;;4181220;28;20237;-91
2022/06/13 07:22:01;;;;;;;9.45;1.80;;;22.30;99.90;;;;;;4164076;28;20196;-91
2022/06/13 07:24:03;;;;;;;11.25;2.13;;;23.40;99.90;;;;;;4181330;28;20179;-90
2022/06/13 07:26:03;;;;;;;7.28;2.00;;;24.70;99.90;;;;;;4165289;28;20246;-92
2022/06/13 07:28:04;;;;;;;6.30;1.80;;;25.50;99.90;;;;;;4181662;28;20199;-92
2022/06/13 07:30:06;;;;;;;6.68;1.50;;;26.00;99.90;;;;;;4181555;28;20233;-91
2022/06/13 07:32:21;;;;;;;8.73;1.88;;;26.90;99.90;;;;;;4165152;28;20255;-91
2022/06/13 07:34:26;;;;;;;8.27;1.83;;;27.10;99.90;;;;;;4165256;28;20237;-92
2022/06/13 07:36:27;;;;;;;9.20;2.10;;;25.70;99.90;;;;;;4164937;28;20177;-90
2022/06/13 07:38:27;;;;;;;10.43;2.30;;;24.70;99.90;;;;;;4181179;28;20278;-90
2022/06/13 07:40:29;;;;;;;10.95;2.17;;;25.50;99.90;;;;;;4164668;28;20184;-90
2022/06/13 07:42:44;;;;;;;12.75;2.00;;;26.70;99.90;;;;;;4181667;28;20179;-91
2022/06/13 07:44:44;;;;;;;7.30;1.88;;;28.00;99.90;;;;;;4181449;28;20266;-91
2022/06/13 07:46:46;;;;;;;9.93;2.47;;;27.50;99.90;;;;;;4180919;28;20231;-91
2022/06/13 07:48:49;;;;;;;7.50;2.47;;;25.70;99.90;;;;;;4164925;28;20275;-90
2022/06/13 07:50:50;;;;;;;8.00;2.25;;;25.10;99.90;;;;;;4164792;28;20214;-92
2022/06/13 07:52:53;;;;;;;9.85;2.10;;;25.30;99.90;;;;;;4164751;28;20164;-92
2022/06/13 07:54:53;;;;;;;7.75;1.58;;;25.50;99.90;;;;;;4181197;28;20297;-91
2022/06/13 07:56:54;;;;;;;6.55;2.00;;;25.40;99.90;;;;;;4164940;28;20173;-90
2022/06/13 07:58:56;;;;;;;7.25;1.90;;;25.90;99.90;;;;;;4164602;28;20192;-92
2022/06/13 08:00:57;;;;;;;5.57;1.90;;;26.20;99.90;;;;;;4164949;28;20184;-90
2022/06/13 08:02:59;;;;;;;6.53;1.77;;;25.60;99.90;;;;;;4164916;28;20267;-91
2022/06/13 08:04:59;;;;;;;12.02;2.03;;;24.70;99.90;;;;;;4164245;28;20176;-90
2022/06/13 08:07:00;;;;;;;7.13;1.73;;;24.90;99.90;;;;;;4164650;28;20194;-93
2022/06/13 08:09:01;;;;;;;5.55;1.40;;;25.60;99.90;;;;;;4164521;28;20611;-92
2022/06/13 08:11:06;;;;;;;12.23;2.05;;;25.90;99.90;;;;;;4164617;28;20180;-92
2022/06/13 08:13:08;;;;;;;8.43;1.73;;;24.80;99.90;;;;;;4164699;28;20203;-90
2022/06/13 08:15:09;;;;;;;9.25;1.70;;;24.80;99.90;;;;;;4164420;28;20176;-91
2022/06/13 08:17:10;;;;;;;7.60;1.58;;;25.40;99.90;;;;;;4164231;28;20571;-92
2022/06/13 08:19:11;;;;;;;7.60;1.70;;;24.60;99.90;;;;;;4180840;28;20214;-90
2022/06/13 08:21:12;;;;;;;5.32;1.45;;;24.20;99.90;;;;;;4164171;28;20172;-91
2022/06/13 08:23:15;;;;;;;4.72;1.33;;;25.10;99.90;;;;;;4164403;28;20172;-91
2022/06/13 08:25:19;;;;;;;8.77;1.90;;;26.10;99.90;;;;;;4164111;28;20183;-91
2022/06/13 08:27:20;;;;;;;12.07;1.73;;;25.80;99.90;;;;;;4164864;28;20223;-92
2022/06/13 08:29:21;;;;;;;7.20;1.50;;;25.30;99.90;;;;;;4181118;28;20707;-91
2022/06/13 08:31:22;;;;;;;10.80;1.67;;;24.50;99.90;;;;;;4164569;28;20218;-90
2022/06/13 08:33:24;;;;;;;8.13;1.45;;;24.00;99.90;;;;;;4164789;28;20176;-91
2022/06/13 08:35:26;;;;;;;7.35;1.67;;;23.10;99.90;;;;;;4167910;28;20168;-93
2022/06/13 08:37:27;;;;;;;7.45;1.58;;;22.80;99.90;;;;;;4167715;28;20234;-90
2022/06/13 08:39:27;;;;;;;10.50;1.92;;;22.70;99.90;;;;;;4184148;28;20183;-90
2022/06/13 08:41:55;;;;;;;8.48;1.80;;;23.20;99.90;;;;;;4167659;28;20624;-91
2022/06/13 08:44:12;;;;;;;6.32;1.40;;;24.60;99.90;;;;;;4167521;28;20189;-92
2022/06/13 08:46:46;;;;;;;7.88;1.92;;;25.40;99.90;;;;;;4167405;28;20621;-91
2022/06/13 08:48:52;;;;;;;8.07;1.67;;;24.90;99.90;;;;;;4118024;28;20205;-92
2022/06/13 08:51:08;;;;;;;7.85;1.60;;;24.60;99.90;;;;;;4167501;28;20207;-90
2022/06/13 08:53:21;;;;;;;5.07;1.50;;;24.20;99.90;;;;;;4167563;28;20211;-91
2022/06/13 08:55:35;;;;;;;9.13;1.48;;;23.90;99.90;;;;;;4167542;28;20184;-90
2022/06/13 08:57:38;;;;;;;11.05;1.48;;;23.40;99.90;;;;;;4167486;28;20179;-90
2022/06/13 08:59:51;;;;;;;6.13;1.60;;;23.50;99.90;;;;;;4167340;28;20179;-90
2022/06/13 09:02:07;;;;;;;6.90;1.50;;;23.70;99.90;;;;;;4167436;28;20183;-90
2022/06/13 09:04:18;;;;;;;5.88;1.38;;;23.60;99.90;;;;;;4167375;28;20242;-91
2022/06/13 09:06:31;;;;;;;5.82;1.50;;;23.00;99.90;;;;;;4167159;28;20309;-90
2022/06/13 09:08:39;;;;;;;7.22;1.25;;;22.70;99.90;;;;;;4166976;28;20184;-91
2022/06/13 09:10:49;;;;;;;4.13;1.30;;;22.60;99.90;;;;;;4184026;28;20174;-94
2022/06/13 09:13:02;;;;;;;6.70;1.38;;;22.20;99.90;;;;;;4167446;28;20172;-90
2022/06/13 09:15:10;;;;;;;5.35;1.20;;;21.70;99.90;;;;;;4183998;28;20186;-91
2022/06/13 09:17:42;;;;;;;4.57;1.15;;;21.70;99.90;;;;;;4183782;28;20246;-92
2022/06/13 09:20:07;;;;;;;7.60;1.30;;;21.50;99.90;;;;;;4167027;28;20188;-92
2022/06/13 09:22:20;;;;;;;4.50;1.05;;;21.00;99.90;;;;;;4183777;28;20250;-91
2022/06/13 09:24:52;;;;;;;6.68;1.30;;;21.30;99.90;;;;;;4167061;28;20266;-91
2022/06/13 09:27:03;;;;;;;4.53;1.08;;;22.20;99.90;;;;;;4183578;28;20273;-90
2022/06/13 09:29:14;;;;;;;6.72;1.30;;;22.90;99.90;;;;;;4166721;28;20195;-91
2022/06/13 09:31:30;;;;;;;6.82;1.25;;;23.00;99.90;;;;;;4166987;28;20219;-92
2022/06/13 09:33:33;;;;;;;5.00;1.13;;;22.80;99.90;;;;;;4167176;28;20186;-91
2022/06/13 09:35:55;;;;;;;4.22;1.35;;;22.10;99.90;;;;;;4183330;28;20164;-91
2022/06/13 09:38:05;;;;;;;5.13;0.82;;;21.40;99.90;;;;;;4166985;28;20196;-91
2022/06/13 09:40:07;;;;;;;6.15;1.25;;;21.30;99.90;;;;;;4166680;28;20171;-92
2022/06/13 09:42:32;;;;;;;6.55;1.15;;;21.30;99.90;;;;;;4183481;28;20168;-91
2022/06/13 09:44:52;;;;;;;3.45;0.90;;;22.00;99.90;;;;;;4166123;28;20183;-91
2022/06/13 09:47:26;;;;;;;3.15;0.73;;;22.50;99.90;;;;;;4166669;28;20218;-92
2022/06/13 09:49:56;;;;;;;3.95;0.90;;;22.50;99.90;;;;;;4166453;28;20200;-92
2022/06/13 09:52:13;;;;;;;4.85;0.77;;;22.00;99.90;;;;;;4183864;28;20171;-91
2022/06/13 09:54:36;;;;;;;2.47;0.50;;;21.80;99.90;;;;;;4166549;28;20175;-92
2022/06/13 09:56:49;;;;;;;2.72;0.60;;;21.30;99.90;;;;;;4130232;28;20195;-91
2022/06/13 09:59:12;;;;;;;4.32;0.73;;;21.40;99.90;;;;;;4166356;28;20200;-92
2022/06/13 10:01:18;;;;;;;4.22;0.52;;;21.40;99.90;;;;;;4166591;28;20172;-91
2022/06/13 10:03:24;;;;;;;2.65;0.70;;;21.40;99.90;;;;;;4182929;28;20266;-93
2022/06/13 10:05:41;;;;;;;4.70;0.70;;;22.50;99.90;;;;;;4166414;28;20204;-91
2022/06/13 10:07:52;;;;;;;5.07;0.80;;;23.70;99.90;;;;;;4183377;28;20209;-93
2022/06/13 10:09:56;;;;;;;6.68;0.90;;;24.70;99.90;;;;;;4166312;28;20275;-93
2022/06/13 10:12:03;;;;;;;2.53;0.70;;;25.90;99.90;;;;;;4183041;28;20189;-91
2022/06/13 10:14:24;;;;;;;3.85;0.63;;;26.20;99.90;;;;;;4166390;28;20176;-89
2022/06/13 10:16:34;;;;;;;5.60;0.88;;;27.00;99.90;;;;;;4166427;28;20183;-89
2022/06/13 10:19:12;;;;;;;5.00;1.10;;;27.50;99.90;;;;;;4166457;28;20279;-89
2022/06/13 10:21:23;;;;;;;4.57;0.80;;;27.50;99.90;;;;;;4166328;28;20262;-89
2022/06/13 10:23:33;;;;;;;4.63;0.90;;;27.20;99.90;;;;;;4166439;28;20541;-88
2022/06/13 10:25:34;;;;;;;3.40;0.75;;;26.40;99.90;;;;;;4166304;28;20202;-88
2022/06/13 10:27:53;;;;;;;5.32;0.70;;;25.50;99.90;;;;;;4166396;28;20184;-89
2022/06/13 10:30:16;;;;;;;4.32;0.80;;;24.20;99.90;;;;;;4182826;28;20172;-91
2022/06/13 10:32:45;;;;;;;3.50;0.80;;;23.40;99.90;;;;;;4165657;28;20192;-91
2022/06/13 10:35:13;;;;;;;5.40;0.65;;;23.20;99.90;;;;;;4166018;28;20267;-92
2022/06/13 10:37:31;;;;;;;3.67;0.80;;;23.00;99.90;;;;;;4166113;28;20184;-90
2022/06/13 10:39:32;;;;;;;4.10;0.85;;;22.50;99.90;;;;;;4166228;28;20250;-91
2022/06/13 10:41:37;;;;;;;3.88;0.60;;;22.40;99.90;;;;;;4166092;28;20172;-92
2022/06/13 10:43:42;;;;;;;4.28;0.60;;;22.40;99.90;;;;;;4166348;28;20745;-91
2022/06/13 10:45:44;;;;;;;7.57;0.85;;;22.50;99.90;;;;;;4182665;28;20301;-93
2022/06/13 10:48:09;;;;;;;2.13;0.80;;;22.60;99.90;;;;;;4165978;28;20176;-90
2022/06/13 10:50:21;;;;;;;4.13;1.20;;;23.10;99.90;;;;;;4166057;28;20238;-91
2022/06/13 10:52:31;;;;;;;1.77;0.60;;;23.30;99.90;;;;;;4165632;28;20620;-91
2022/06/13 10:54:45;;;;;;;2.45;0.80;;;23.10;99.90;;;;;;4182125;28;20179;-91
2022/06/13 10:56:55;;;;;;;3.65;0.82;;;22.60;99.90;;;;;;4165762;28;20180;-91
2022/06/13 10:58:59;;;;;;;3.25;0.73;;;22.60;99.90;;;;;;4182310;28;20290;-91
2022/06/13 11:01:22;;;;;;;4.13;0.90;;;22.50;99.90;;;;;;4165552;28;20239;-91
2022/06/13 11:03:23;;;;;;;4.15;0.70;;;22.80;99.90;;;;;;4165858;28;20176;-91
2022/06/13 11:05:25;;;;;;;5.50;1.10;;;23.00;99.90;;;;;;4165394;28;20226;-92
2022/06/13 11:07:26;;;;;;;4.35;0.80;;;23.40;99.90;;;;;;4165473;28;20184;-91
2022/06/13 11:09:27;;;;;;;5.60;0.80;;;23.30;99.90;;;;;;4165395;28;20595;-91
2022/06/13 11:11:31;;;;;;;6.85;0.90;;;22.40;99.90;;;;;;4181905;28;20175;-92
2022/06/13 11:13:38;;;;;;;4.07;0.90;;;22.20;99.90;;;;;;4167528;28;20538;-90